Terminal Aerodrome Forecast
Issued by NWS Charleston, SC

Home | Current Version | Previous Version | Text Only | Print | Product List | Glossary On
Versions: 1 2 3 4 5 6 7 8 9 10 11 12 13 14 15 16 17
000
FTUS42 KCHS 221526 AAB
TAFSAV
TAF AMD
KSAV 221526Z 2215/2312 09008KT P6SM VCSH SCT035
      TEMPO 2215/2217 3SM SHRA BR SCT008 BKN025
     FM221700 10009KT P6SM VCSH SCT035 BKN045
     FM231000 14007KT 5SM -SHRA SCT025 OVC040=

USA.gov is the U.S. government's official web portal to all federal, state and local government web resources and services.